Terminal Aerodrome Forecast
Issued by NWS Sioux Falls, SD

Home | Current Version | Previous Version | Text Only | Print | Product List | Glossary On
Versions: 1 2 3 4 5 6 7 8 9 10 11 12 13 14
670
FTUS43 KFSD 051720
TAFHON
TAF
KHON 051720Z 0518/0618 30007KT P6SM OVC050
      TEMPO 0518/0520 2SM -SHSN BKN025
     FM052200 32008KT P6SM SCT050
     FM060300 23005KT P6SM SCT150
     FM061000 19007KT P6SM SCT150=

USA.gov is the U.S. government's official web portal to all federal, state and local government web resources and services.